sensor_id;sensor_type;location;lat;lon;timestamp;pressure;altitude;pressure_sealevel;temperature;humidity
5679;BME280;2862;52.560;13.566;2024-01-16T00:04:17;99116.00;;;1.05;82.25
5679;BME280;2862;52.560;13.566;2024-01-16T00:14:21;99127.78;;;0.74;81.07
5679;BME280;2862;52.560;13.566;2024-01-16T00:24:24;99131.97;;;0.51;84.64
5679;BME280;2862;52.560;13.566;2024-01-16T00:34:29;99179.13;;;0.54;84.91
5679;BME280;2862;52.560;13.566;2024-01-16T00:44:32;99203.16;;;0.35;90.25
5679;BME280;2862;52.560;13.566;2024-01-16T00:54:38;99194.47;;;0.20;97.87
5679;BME280;2862;52.560;13.566;2024-01-16T01:04:42;99231.97;;;0.10;100.00
5679;BME280;2862;52.560;13.566;2024-01-16T01:14:47;99244.41;;;0.20;100.00
5679;BME280;2862;52.560;13.566;2024-01-16T01:24:52;99245.09;;;0.10;100.00
5679;BME280;2862;52.560;13.566;2024-01-16T01:34:59;99249.34;;;0.12;100.00
5679;BME280;2862;52.560;13.566;2024-01-16T01:45:02;99270.97;;;-0.11;100.00
5679;BME280;2862;52.560;13.566;2024-01-16T01:55:10;99259.06;;;-0.31;100.00
5679;BME280;2862;52.560;13.566;2024-01-16T02:05:14;99271.53;;;-0.35;100.00
5679;BME280;2862;52.560;13.566;2024-01-16T02:15:19;99285.88;;;-0.55;100.00
5679;BME280;2862;52.560;13.566;2024-01-16T02:25:24;99289.94;;;-0.49;100.00
5679;BME280;2862;52.560;13.566;2024-01-16T02:35:26;99301.72;;;-0.70;100.00
5679;BME280;2862;52.560;13.566;2024-01-16T02:45:32;99327.81;;;-0.39;100.00
5679;BME280;2862;52.560;13.566;2024-01-16T02:55:37;99328.16;;;-0.59;100.00
5679;BME280;2862;52.560;13.566;2024-01-16T03:05:41;99335.72;;;-0.83;100.00
5679;BME280;2862;52.560;13.566;2024-01-16T03:15:44;99367.19;;;-1.13;100.00
5679;BME280;2862;52.560;13.566;2024-01-16T03:25:49;99399.59;;;-1.14;100.00
5679;BME280;2862;52.560;13.566;2024-01-16T03:35:52;99388.09;;;-1.12;100.00
5679;BME280;2862;52.560;13.566;2024-01-16T03:45:58;99411.34;;;-1.05;100.00
5679;BME280;2862;52.560;13.566;2024-01-16T03:56:01;99427.16;;;-0.91;100.00
5679;BME280;2862;52.560;13.566;2024-01-16T04:06:14;99448.41;;;-0.66;100.00
5679;BME280;2862;52.560;13.566;2024-01-16T04:16:17;99458.34;;;-0.87;100.00
5679;BME280;2862;52.560;13.566;2024-01-16T04:26:21;99456.03;;;-0.61;100.00
5679;BME280;2862;52.560;13.566;2024-01-16T04:36:26;99464.97;;;-0.49;100.00
5679;BME280;2862;52.560;13.566;2024-01-16T04:46:31;99479.56;;;-0.60;100.00
5679;BME280;2862;52.560;13.566;2024-01-16T04:56:34;99479.66;;;-0.61;100.00
5679;BME280;2862;52.560;13.566;2024-01-16T05:06:39;99470.84;;;-0.60;100.00
5679;BME280;2862;52.560;13.566;2024-01-16T05:16:42;99479.66;;;-0.61;100.00
5679;BME280;2862;52.560;13.566;2024-01-16T05:26:47;99498.53;;;-0.70;100.00
5679;BME280;2862;52.560;13.566;2024-01-16T05:36:51;99508.44;;;-0.60;100.00
5679;BME280;2862;52.560;13.566;2024-01-16T05:46:55;99508.50;;;-0.45;100.00
5679;BME280;2862;52.560;13.566;2024-01-16T05:56:58;99525.91;;;-0.29;100.00
5679;BME280;2862;52.560;13.566;2024-01-16T06:07:03;99540.75;;;-0.28;100.00
5679;BME280;2862;52.560;13.566;2024-01-16T06:17:08;99557.09;;;-0.38;100.00
5679;BME280;2862;52.560;13.566;2024-01-16T06:27:13;99560.25;;;-0.63;100.00
5679;BME280;2862;52.560;13.566;2024-01-16T06:37:21;99583.03;;;-0.48;100.00
5679;BME280;2862;52.560;13.566;2024-01-16T06:47:25;99600.31;;;-0.44;100.00
5679;BME280;2862;52.560;13.566;2024-01-16T06:57:28;99605.81;;;-0.33;100.00
5679;BME280;2862;52.560;13.566;2024-01-16T07:07:33;99617.78;;;-0.13;100.00
5679;BME280;2862;52.560;13.566;2024-01-16T07:17:36;99629.94;;;0.20;100.00
5679;BME280;2862;52.560;13.566;2024-01-16T07:27:40;99657.75;;;-0.22;100.00
5679;BME280;2862;52.560;13.566;2024-01-16T07:37:47;99659.66;;;-0.10;100.00
5679;BME280;2862;52.560;13.566;2024-01-16T07:47:52;99665.38;;;-0.33;100.00
5679;BME280;2862;52.560;13.566;2024-01-16T07:57:55;99660.41;;;0.08;100.00
5679;BME280;2862;52.560;13.566;2024-01-16T08:07:59;99673.88;;;0.18;100.00
5679;BME280;2862;52.560;13.566;2024-01-16T08:18:03;99687.41;;;0.26;100.00
5679;BME280;2862;52.560;13.566;2024-01-16T08:28:08;99688.59;;;0.20;100.00
5679;BME280;2862;52.560;13.566;2024-01-16T08:38:11;99696.81;;;0.30;100.00
5679;BME280;2862;52.560;13.566;2024-01-16T08:48:15;99700.41;;;-0.03;100.00
5679;BME280;2862;52.560;13.566;2024-01-16T08:58:18;99705.75;;;0.12;100.00
5679;BME280;2862;52.560;13.566;2024-01-16T09:08:23;99706.56;;;0.28;100.00
5679;BME280;2862;52.560;13.566;2024-01-16T09:18:28;99715.97;;;0.32;100.00
5679;BME280;2862;52.560;13.566;2024-01-16T09:28:32;99724.63;;;0.64;100.00
5679;BME280;2862;52.560;13.566;2024-01-16T09:38:35;99727.50;;;0.75;100.00
5679;BME280;2862;52.560;13.566;2024-01-16T09:48:40;99726.28;;;0.95;99.07
5679;BME280;2862;52.560;13.566;2024-01-16T09:58:48;99732.03;;;0.88;100.00
5679;BME280;2862;52.560;13.566;2024-01-16T10:08:53;99736.19;;;1.20;100.00
5679;BME280;2862;52.560;13.566;2024-01-16T10:19:03;99748.59;;;1.04;100.00
5679;BME280;2862;52.560;13.566;2024-01-16T10:29:08;99737.97;;;1.05;100.00
5679;BME280;2862;52.560;13.566;2024-01-16T10:39:13;99736.78;;;1.40;100.00
5679;BME280;2862;52.560;13.566;2024-01-16T10:49:20;99741.84;;;1.57;98.21
5679;BME280;2862;52.560;13.566;2024-01-16T10:59:25;99751.13;;;1.77;99.03
5679;BME280;2862;52.560;13.566;2024-01-16T11:09:32;99737.13;;;2.18;96.14
5679;BME280;2862;52.560;13.566;2024-01-16T11:19:36;99732.13;;;1.72;96.59
5679;BME280;2862;52.560;13.566;2024-01-16T11:29:41;99719.94;;;1.42;98.53
5679;BME280;2862;52.560;13.566;2024-01-16T11:39:44;99712.69;;;1.31;100.00
5679;BME280;2862;52.560;13.566;2024-01-16T11:49:51;99713.44;;;1.19;100.00
5679;BME280;2862;52.560;13.566;2024-01-16T12:00:01;99709.59;;;1.39;100.00
5679;BME280;2862;52.560;13.566;2024-01-16T12:10:15;99705.72;;;1.30;100.00
5679;BME280;2862;52.560;13.566;2024-01-16T12:20:18;99692.56;;;1.02;100.00
5679;BME280;2862;52.560;13.566;2024-01-16T12:30:23;99680.63;;;1.11;100.00
5679;BME280;2862;52.560;13.566;2024-01-16T12:40:27;99665.47;;;1.14;100.00
5679;BME280;2862;52.560;13.566;2024-01-16T12:50:32;99661.84;;;1.17;100.00
5679;BME280;2862;52.560;13.566;2024-01-16T13:00:35;99661.81;;;1.02;100.00
5679;BME280;2862;52.560;13.566;2024-01-16T13:10:40;99654.88;;;1.16;100.00
5679;BME280;2862;52.560;13.566;2024-01-16T13:20:43;99642.66;;;0.86;100.00
5679;BME280;2862;52.560;13.566;2024-01-16T13:30:48;99651.47;;;1.14;100.00
5679;BME280;2862;52.560;13.566;2024-01-16T13:40:51;99654.13;;;1.28;100.00
5679;BME280;2862;52.560;13.566;2024-01-16T13:50:56;99655.34;;;1.78;100.00
5679;BME280;2862;52.560;13.566;2024-01-16T14:00:59;99655.69;;;1.45;100.00
5679;BME280;2862;52.560;13.566;2024-01-16T14:11:04;99644.88;;;1.49;100.00
5679;BME280;2862;52.560;13.566;2024-01-16T14:21:07;99637.94;;;1.34;100.00
5679;BME280;2862;52.560;13.566;2024-01-16T14:31:11;99637.75;;;1.23;100.00
5679;BME280;2862;52.560;13.566;2024-01-16T14:41:14;99646.13;;;1.15;100.00
5679;BME280;2862;52.560;13.566;2024-01-16T14:51:20;99648.75;;;1.01;100.00
5679;BME280;2862;52.560;13.566;2024-01-16T15:01:24;99648.28;;;0.94;100.00
5679;BME280;2862;52.560;13.566;2024-01-16T15:11:28;99646.78;;;0.90;100.00
5679;BME280;2862;52.560;13.566;2024-01-16T15:21:31;99659.50;;;0.98;100.00
5679;BME280;2862;52.560;13.566;2024-01-16T15:31:35;99666.81;;;1.07;100.00
5679;BME280;2862;52.560;13.566;2024-01-16T15:41:39;99673.97;;;1.05;100.00
5679;BME280;2862;52.560;13.566;2024-01-16T15:51:43;99676.69;;;1.18;100.00
5679;BME280;2862;52.560;13.566;2024-01-16T16:01:47;99691.44;;;1.06;100.00
5679;BME280;2862;52.560;13.566;2024-01-16T16:11:51;99702.63;;;0.95;100.00
5679;BME280;2862;52.560;13.566;2024-01-16T16:21:54;99703.00;;;1.03;100.00
5679;BME280;2862;52.560;13.566;2024-01-16T16:31:58;99701.13;;;1.05;100.00
5679;BME280;2862;52.560;13.566;2024-01-16T16:42:02;99724.78;;;0.91;100.00
5679;BME280;2862;52.560;13.566;2024-01-16T16:52:07;99721.03;;;0.95;100.00
5679;BME280;2862;52.560;13.566;2024-01-16T17:02:09;99724.72;;;1.07;100.00
5679;BME280;2862;52.560;13.566;2024-01-16T17:12:14;99722.75;;;1.11;100.00
5679;BME280;2862;52.560;13.566;2024-01-16T17:22:17;99728.03;;;1.11;100.00
5679;BME280;2862;52.560;13.566;2024-01-16T17:32:21;99727.66;;;1.17;100.00
5679;BME280;2862;52.560;13.566;2024-01-16T17:42:24;99732.13;;;1.15;100.00
5679;BME280;2862;52.560;13.566;2024-01-16T17:52:29;99730.19;;;1.04;100.00
5679;BME280;2862;52.560;13.566;2024-01-16T18:02:35;99729.44;;;1.16;100.00
5679;BME280;2862;52.560;13.566;2024-01-16T18:12:41;99739.75;;;1.19;100.00
5679;BME280;2862;52.560;13.566;2024-01-16T18:22:45;99737.22;;;1.18;100.00
5679;BME280;2862;52.560;13.566;2024-01-16T18:32:51;99732.13;;;1.15;100.00
5679;BME280;2862;52.560;13.566;2024-01-16T18:42:54;99744.56;;;1.13;100.00
5679;BME280;2862;52.560;13.566;2024-01-16T18:52:58;99750.66;;;1.13;100.00
5679;BME280;2862;52.560;13.566;2024-01-16T19:03:02;99757.50;;;1.01;100.00
5679;BME280;2862;52.560;13.566;2024-01-16T19:13:06;99755.59;;;0.89;100.00
5679;BME280;2862;52.560;13.566;2024-01-16T19:23:12;99756.34;;;0.77;100.00
5679;BME280;2862;52.560;13.566;2024-01-16T19:33:16;99751.66;;;0.82;100.00
5679;BME280;2862;52.560;13.566;2024-01-16T19:43:19;99758.88;;;0.78;100.00
5679;BME280;2862;52.560;13.566;2024-01-16T19:53:24;99770.22;;;0.79;100.00
5679;BME280;2862;52.560;13.566;2024-01-16T20:03:27;99763.13;;;0.81;100.00
5679;BME280;2862;52.560;13.566;2024-01-16T20:13:34;99753.69;;;0.77;100.00
5679;BME280;2862;52.560;13.566;2024-01-16T20:23:37;99748.06;;;0.83;100.00
5679;BME280;2862;52.560;13.566;2024-01-16T20:33:41;99755.81;;;0.86;100.00
5679;BME280;2862;52.560;13.566;2024-01-16T20:43:48;99761.59;;;0.77;100.00
5679;BME280;2862;52.560;13.566;2024-01-16T20:53:52;99755.59;;;0.75;100.00
5679;BME280;2862;52.560;13.566;2024-01-16T21:03:55;99758.84;;;0.64;100.00
5679;BME280;2862;52.560;13.566;2024-01-16T21:14:04;99744.06;;;0.62;100.00
5679;BME280;2862;52.560;13.566;2024-01-16T21:24:07;99748.03;;;0.69;99.95
5679;BME280;2862;52.560;13.566;2024-01-16T21:34:12;99748.16;;;0.51;100.00
5679;BME280;2862;52.560;13.566;2024-01-16T21:44:16;99735.34;;;0.45;100.00
5679;BME280;2862;52.560;13.566;2024-01-16T21:54:21;99727.16;;;0.36;100.00
5679;BME280;2862;52.560;13.566;2024-01-16T22:04:24;99723.22;;;0.59;100.00
5679;BME280;2862;52.560;13.566;2024-01-16T22:14:31;99720.78;;;0.40;99.74
5679;BME280;2862;52.560;13.566;2024-01-16T22:24:38;99722.31;;;0.44;100.00
5679;BME280;2862;52.560;13.566;2024-01-16T22:34:42;99699.09;;;0.36;100.00
5679;BME280;2862;52.560;13.566;2024-01-16T22:44:45;99691.50;;;0.46;99.64
5679;BME280;2862;52.560;13.566;2024-01-16T22:54:50;99681.44;;;-0.08;100.00
5679;BME280;2862;52.560;13.566;2024-01-16T23:04:52;99669.50;;;-0.29;100.00
5679;BME280;2862;52.560;13.566;2024-01-16T23:14:58;99641.22;;;-0.40;100.00
5679;BME280;2862;52.560;13.566;2024-01-16T23:25:01;99628.84;;;-0.69;100.00
5679;BME280;2862;52.560;13.566;2024-01-16T23:35:07;99619.00;;;-0.82;100.00
5679;BME280;2862;52.560;13.566;2024-01-16T23:45:11;99602.75;;;-0.88;100.00
5679;BME280;2862;52.560;13.566;2024-01-16T23:55:19;99599.31;;;-0.73;100.00
